KHOP/HOP METAR and TAF weather

Enter ICAO airport designator
Station Type Date Time Source
KHOP METAR 2020/04/06 18:56 UTC NOAA

KHOP 061856Z 09003KT 7SM CLR 24/14 A3005 RMK AO2A SLP175 T02360137


Station Type Date Time Source
KHOP Decoded METAR 2020/04/06 18:56 UTC NOAA

Fort Campbell U. S. Army Airfield, KY, United States (KHOP) 36-40N 087-30W 174M
Apr 06, 2020 - 02:56 PM EDT / 2020.04.06 1856 UTC
Wind: from the E (090 degrees) at 3 MPH (3 KT):0
Visibility: 7 mile(s):0
Sky conditions: clear
Temperature: 74.5 F (23.6 C)
Dew Point: 56.7 F (13.7 C)
Relative Humidity: 53%
Pressure (altimeter): 30.05 in. Hg (1017 hPa)
ob: KHOP 061856Z 09003KT 7SM CLR 24/14 A3005 RMK AO2A SLP175 T02360137
cycle: 19

Station Type Date Time Source
KHOP TAF 2020/04/06 16:09 UTC NOAA

TAF TAF KHOP 061600Z 0616/0722 VRB06KT 9999 FEW030 QNH3010INS
BECMG 0710/0711 VRB06KT 9999 SCT020 QNH2998INS
BECMG 0716/0717 22010G15KT 9999 BKN025 QNH2989INS
BECMG 0720/0721 22012G18KT 9000 -SHRA OVC015 QNH2987INS TX23/0621Z TN15/0711Z

Example: see airport list